createdAt,value
2023-01-15T00:02:17.655Z,100.00
2023-01-15T00:04:45.609Z,100.00
2023-01-15T00:07:14.218Z,100.00
2023-01-15T00:09:42.359Z,100.00
2023-01-15T00:12:09.234Z,100.00
2023-01-15T00:14:36.095Z,100.00
2023-01-15T00:17:04.424Z,100.00
2023-01-15T00:19:31.775Z,100.00
2023-01-15T00:21:58.890Z,100.00
2023-01-15T00:24:44.103Z,100.00
2023-01-15T00:27:30.009Z,100.00
2023-01-15T00:29:56.862Z,100.00
2023-01-15T00:32:27.171Z,100.00
2023-01-15T00:34:53.683Z,100.00
2023-01-15T00:37:20.415Z,99.95
2023-01-15T00:39:47.331Z,99.52
2023-01-15T00:42:14.336Z,97.48
2023-01-15T00:44:41.424Z,96.88
2023-01-15T00:47:14.274Z,95.42
2023-01-15T00:49:42.353Z,95.88
2023-01-15T00:52:09.696Z,96.21
2023-01-15T00:54:36.343Z,94.28
2023-01-15T00:57:03.321Z,95.94
2023-01-15T00:59:30.176Z,94.67
2023-01-15T01:01:57.083Z,95.03
2023-01-15T01:04:23.793Z,95.35
2023-01-15T01:06:50.950Z,94.62
2023-01-15T01:09:17.618Z,95.48
2023-01-15T01:11:44.881Z,94.96
2023-01-15T01:14:13.907Z,95.13
2023-01-15T01:16:42.025Z,93.71
2023-01-15T01:19:13.534Z,94.04
2023-01-15T01:21:40.980Z,94.67
2023-01-15T01:24:08.147Z,94.55
2023-01-15T01:26:35.159Z,94.67
2023-01-15T01:29:01.932Z,93.72
2023-01-15T01:31:28.824Z,93.47
2023-01-15T01:33:56.897Z,91.19
2023-01-15T01:36:28.454Z,91.55
2023-01-15T01:38:55.590Z,90.89
2023-01-15T01:41:23.186Z,90.83
2023-01-15T01:43:55.127Z,91.33
2023-01-15T01:46:22.540Z,90.66
2023-01-15T01:48:52.214Z,90.69
2023-01-15T01:51:21.561Z,90.87
2023-01-15T01:53:48.902Z,90.75
2023-01-15T01:56:19.402Z,90.95
2023-01-15T01:58:50.086Z,91.35
2023-01-15T02:01:17.608Z,90.22
2023-01-15T02:03:44.646Z,90.37
2023-01-15T02:06:13.091Z,91.32
2023-01-15T02:08:42.046Z,90.59
2023-01-15T02:11:14.387Z,89.96
2023-01-15T02:13:45.291Z,90.46
2023-01-15T02:16:12.814Z,90.10
2023-01-15T02:18:58.554Z,88.86
2023-01-15T02:21:25.554Z,89.07
2023-01-15T02:23:58.380Z,88.53
2023-01-15T02:26:29.261Z,89.63
2023-01-15T02:28:58.403Z,88.50
2023-01-15T02:31:28.830Z,89.10
2023-01-15T02:33:58.384Z,89.07
2023-01-15T02:36:27.969Z,88.71
2023-01-15T02:38:56.920Z,89.09
2023-01-15T02:41:26.502Z,87.94
2023-01-15T02:43:56.545Z,89.11
2023-01-15T02:46:26.909Z,87.74
2023-01-15T02:48:55.541Z,87.56
2023-01-15T02:51:29.109Z,86.99
2023-01-15T02:53:58.137Z,87.99
2023-01-15T02:56:27.528Z,88.10
2023-01-15T02:58:57.224Z,88.64
2023-01-15T03:01:28.316Z,87.97
2023-01-15T03:04:03.836Z,88.75
2023-01-15T03:06:30.585Z,88.77
2023-01-15T03:08:57.327Z,88.08
2023-01-15T03:11:24.500Z,88.16
2023-01-15T03:14:01.575Z,88.47
2023-01-15T03:16:35.285Z,88.27
2023-01-15T03:19:07.863Z,88.35
2023-01-15T03:21:43.369Z,89.30
2023-01-15T03:24:11.425Z,88.32
2023-01-15T03:26:38.383Z,89.22
2023-01-15T03:29:07.113Z,88.92
2023-01-15T03:31:34.967Z,89.11
2023-01-15T03:34:02.514Z,89.63
2023-01-15T03:36:30.768Z,88.72
2023-01-15T03:38:58.262Z,89.37
2023-01-15T03:41:30.658Z,89.36
2023-01-15T03:44:15.828Z,89.27
2023-01-15T03:47:09.172Z,89.69
2023-01-15T03:49:36.205Z,88.77
2023-01-15T03:52:12.733Z,88.74
2023-01-15T03:54:47.862Z,89.12
2023-01-15T03:57:34.795Z,89.34
2023-01-15T04:00:07.804Z,89.54
2023-01-15T04:02:36.393Z,89.93
2023-01-15T04:05:03.840Z,90.64
2023-01-15T04:07:31.543Z,89.58
2023-01-15T04:09:58.427Z,89.99
2023-01-15T04:12:28.038Z,89.99
2023-01-15T04:14:55.011Z,89.77
2023-01-15T04:17:23.200Z,89.07
2023-01-15T04:19:51.389Z,89.86
2023-01-15T04:22:18.319Z,89.74
2023-01-15T04:24:45.929Z,90.93
2023-01-15T04:27:12.417Z,90.22
2023-01-15T04:29:39.145Z,90.45
2023-01-15T04:32:06.517Z,89.34
2023-01-15T04:34:34.756Z,89.65
2023-01-15T04:37:01.629Z,89.60
2023-01-15T04:39:28.219Z,90.30
2023-01-15T04:42:13.851Z,89.99
2023-01-15T04:44:40.626Z,89.62
2023-01-15T04:47:07.458Z,89.76
2023-01-15T04:49:34.844Z,90.84
2023-01-15T04:52:01.624Z,89.35
2023-01-15T04:54:28.540Z,89.05
2023-01-15T04:56:55.364Z,88.89
2023-01-15T04:59:24.068Z,88.13
2023-01-15T05:02:03.077Z,87.72
2023-01-15T05:04:32.719Z,87.97
2023-01-15T05:07:00.873Z,87.66
2023-01-15T05:09:27.792Z,87.57
2023-01-15T05:11:54.619Z,87.62
2023-01-15T05:14:21.848Z,87.65
2023-01-15T05:16:48.518Z,88.80
2023-01-15T05:19:16.064Z,87.97
2023-01-15T05:21:43.691Z,87.78
2023-01-15T05:24:13.787Z,87.93
2023-01-15T05:26:40.741Z,88.20
2023-01-15T05:29:07.867Z,87.55
2023-01-15T05:31:34.978Z,88.09
2023-01-15T05:34:02.189Z,88.42
2023-01-15T05:36:30.498Z,87.37
2023-01-15T05:39:01.388Z,87.45
2023-01-15T05:41:47.514Z,87.48
2023-01-15T05:44:16.010Z,87.37
2023-01-15T05:46:43.452Z,85.78
2023-01-15T05:49:14.972Z,86.65
2023-01-15T05:51:41.940Z,86.20
2023-01-15T05:54:11.008Z,87.00
2023-01-15T05:56:38.340Z,85.83
2023-01-15T05:59:06.523Z,85.31
2023-01-15T06:01:33.874Z,85.61
2023-01-15T06:04:02.669Z,85.03
2023-01-15T06:06:29.812Z,84.78
2023-01-15T06:08:56.556Z,84.41
2023-01-15T06:11:24.566Z,84.64
2023-01-15T06:13:51.492Z,84.85
2023-01-15T06:16:19.074Z,86.09
2023-01-15T06:18:46.003Z,84.98
2023-01-15T06:21:14.432Z,85.07
2023-01-15T06:23:41.862Z,85.86
2023-01-15T06:26:11.133Z,85.72
2023-01-15T06:28:38.080Z,84.64
2023-01-15T06:31:06.064Z,85.27
2023-01-15T06:33:33.212Z,85.36
2023-01-15T06:36:10.960Z,84.88
2023-01-15T06:38:38.652Z,85.61
2023-01-15T06:41:26.649Z,85.54
2023-01-15T06:44:12.212Z,85.24
2023-01-15T06:47:01.053Z,84.52
2023-01-15T06:49:28.147Z,85.06
2023-01-15T06:51:55.213Z,85.33
2023-01-15T06:54:22.112Z,85.32
2023-01-15T06:56:48.696Z,85.07
2023-01-15T06:59:15.568Z,85.07
2023-01-15T07:01:42.613Z,85.41
2023-01-15T07:04:09.663Z,85.80
2023-01-15T07:06:36.842Z,86.07
2023-01-15T07:09:04.277Z,85.91
2023-01-15T07:11:31.186Z,85.29
2023-01-15T07:14:06.989Z,84.73
2023-01-15T07:16:35.091Z,85.23
2023-01-15T07:19:02.830Z,84.10
2023-01-15T07:21:29.792Z,83.62
2023-01-15T07:23:58.923Z,83.83
2023-01-15T07:26:26.695Z,83.03
2023-01-15T07:28:53.974Z,82.91
2023-01-15T07:31:20.758Z,82.73
2023-01-15T07:33:47.665Z,82.52
2023-01-15T07:36:15.012Z,82.88
2023-01-15T07:38:42.148Z,82.36
2023-01-15T07:41:27.764Z,82.07
2023-01-15T07:44:13.125Z,82.29
2023-01-15T07:46:58.278Z,82.56
2023-01-15T07:49:43.717Z,82.88
2023-01-15T07:52:10.155Z,82.94
2023-01-15T07:54:37.553Z,83.18
2023-01-15T07:57:05.589Z,82.57
2023-01-15T07:59:32.740Z,83.57
2023-01-15T08:01:59.690Z,83.32
2023-01-15T08:04:26.461Z,82.96
2023-01-15T08:06:53.667Z,82.82
2023-01-15T08:09:20.510Z,83.40
2023-01-15T08:12:06.316Z,83.01
2023-01-15T08:14:52.194Z,82.85
2023-01-15T08:17:19.170Z,82.34
2023-01-15T08:19:46.407Z,80.79
2023-01-15T08:22:13.566Z,81.88
2023-01-15T08:24:40.272Z,82.38
2023-01-15T08:27:07.471Z,83.07
2023-01-15T08:29:34.244Z,81.86
2023-01-15T08:32:03.125Z,82.47
2023-01-15T08:34:30.083Z,81.70
2023-01-15T08:36:59.983Z,81.61
2023-01-15T08:39:28.121Z,80.40
2023-01-15T08:41:55.939Z,80.59
2023-01-15T08:44:23.810Z,80.59
2023-01-15T08:46:51.469Z,80.85
2023-01-15T08:49:18.783Z,80.69
2023-01-15T08:51:46.024Z,81.02
2023-01-15T08:54:13.080Z,80.85
2023-01-15T08:56:39.875Z,79.69
2023-01-15T08:59:08.205Z,80.61
2023-01-15T09:01:35.495Z,80.50
2023-01-15T09:04:02.749Z,79.38
2023-01-15T09:06:30.118Z,79.58
2023-01-15T09:08:58.607Z,79.80
2023-01-15T09:11:25.611Z,79.12
2023-01-15T09:13:53.922Z,78.72
2023-01-15T09:16:21.060Z,78.82
2023-01-15T09:18:48.229Z,77.96
2023-01-15T09:21:15.772Z,78.47
2023-01-15T09:23:42.692Z,78.44
2023-01-15T09:26:25.369Z,79.34
2023-01-15T09:28:52.343Z,79.55
2023-01-15T09:31:19.164Z,80.11
2023-01-15T09:33:45.852Z,79.36
2023-01-15T09:36:20.120Z,79.96
2023-01-15T09:38:46.832Z,80.06
2023-01-15T09:41:34.819Z,80.17
2023-01-15T09:44:08.946Z,80.49
2023-01-15T09:46:36.219Z,80.67
2023-01-15T09:49:05.948Z,80.49
2023-01-15T09:51:44.264Z,80.75
2023-01-15T09:54:40.317Z,79.42
2023-01-15T09:57:12.338Z,80.00
2023-01-15T09:59:41.140Z,80.18
2023-01-15T10:02:27.512Z,78.92
2023-01-15T10:05:02.255Z,77.24
2023-01-15T10:07:34.748Z,76.93
2023-01-15T10:10:11.519Z,77.00
2023-01-15T10:12:40.258Z,76.84
2023-01-15T10:15:13.825Z,75.98
2023-01-15T10:17:47.666Z,75.98
2023-01-15T10:20:16.876Z,75.90
2023-01-15T10:22:49.643Z,72.79
2023-01-15T10:25:22.461Z,73.92
2023-01-15T10:27:51.535Z,72.65
2023-01-15T10:30:42.153Z,71.97
2023-01-15T10:33:20.646Z,72.02
2023-01-15T10:35:57.260Z,71.49
2023-01-15T10:38:33.666Z,70.92
2023-01-15T10:41:06.509Z,71.03
2023-01-15T10:43:33.785Z,69.73
2023-01-15T10:46:01.835Z,69.82
2023-01-15T10:48:30.952Z,70.28
2023-01-15T10:51:01.208Z,69.91
2023-01-15T10:53:46.706Z,69.89
2023-01-15T10:56:35.815Z,69.57
2023-01-15T10:59:16.603Z,69.77
2023-01-15T11:01:43.887Z,68.90
2023-01-15T11:04:16.885Z,68.77
2023-01-15T11:06:45.730Z,68.96
2023-01-15T11:09:18.967Z,68.97
2023-01-15T11:12:00.767Z,69.64
2023-01-15T11:14:53.582Z,68.79
2023-01-15T11:17:40.448Z,68.31
2023-01-15T11:20:34.620Z,69.41
2023-01-15T11:23:09.306Z,69.48
2023-01-15T11:25:36.520Z,70.07
2023-01-15T11:28:05.075Z,68.98
2023-01-15T11:30:39.499Z,69.42
2023-01-15T11:33:20.165Z,68.51
2023-01-15T11:35:58.722Z,68.58
2023-01-15T11:38:26.495Z,69.56
2023-01-15T11:40:54.682Z,68.76
2023-01-15T11:43:44.080Z,68.80
2023-01-15T11:46:41.573Z,68.68
2023-01-15T11:49:28.284Z,68.05
2023-01-15T11:51:58.046Z,68.41
2023-01-15T11:54:26.314Z,68.49
2023-01-15T11:56:54.597Z,67.97
2023-01-15T11:59:21.584Z,69.13
2023-01-15T12:01:59.376Z,69.59
2023-01-15T12:04:30.292Z,69.12
2023-01-15T12:06:57.856Z,69.03
2023-01-15T12:09:28.124Z,68.76
2023-01-15T12:12:08.040Z,68.52
2023-01-15T12:14:53.858Z,68.26
2023-01-15T12:17:28.799Z,68.57
2023-01-15T12:20:04.505Z,68.39
2023-01-15T12:22:47.956Z,68.44
2023-01-15T12:25:23.709Z,68.98
2023-01-15T12:27:59.326Z,69.41
2023-01-15T12:30:33.392Z,69.01
2023-01-15T12:33:19.574Z,68.90
2023-01-15T12:36:06.552Z,68.43
2023-01-15T12:38:47.620Z,68.70
2023-01-15T12:41:17.579Z,68.29
2023-01-15T12:44:06.053Z,68.07
2023-01-15T12:46:34.140Z,68.88
2023-01-15T12:49:29.016Z,68.51
2023-01-15T12:52:05.068Z,68.75
2023-01-15T12:54:38.229Z,68.92
2023-01-15T12:57:18.034Z,68.40
2023-01-15T12:59:54.277Z,68.63
2023-01-15T13:02:24.045Z,69.30
2023-01-15T13:05:12.010Z,68.91
2023-01-15T13:07:41.961Z,69.36
2023-01-15T13:10:20.019Z,69.27
2023-01-15T13:12:46.696Z,69.51
2023-01-15T13:15:15.111Z,69.84
2023-01-15T13:18:00.803Z,69.84
2023-01-15T13:20:34.638Z,69.13
2023-01-15T13:23:20.234Z,69.61
2023-01-15T13:25:47.806Z,69.35
2023-01-15T13:28:18.060Z,69.56
2023-01-15T13:31:08.600Z,69.95
2023-01-15T13:33:46.949Z,68.95
2023-01-15T13:36:18.825Z,69.29
2023-01-15T13:38:49.245Z,69.25
2023-01-15T13:41:39.369Z,69.07
2023-01-15T13:44:06.397Z,69.57
2023-01-15T13:46:34.006Z,68.90
2023-01-15T13:49:01.139Z,69.16
2023-01-15T13:51:33.035Z,68.98
2023-01-15T13:54:01.543Z,69.60
2023-01-15T13:56:29.860Z,69.66
2023-01-15T13:59:05.427Z,69.74
2023-01-15T14:01:33.403Z,69.29
2023-01-15T14:04:04.085Z,69.04
2023-01-15T14:06:44.564Z,69.65
2023-01-15T14:09:26.418Z,67.62
2023-01-15T14:12:31.711Z,67.71
2023-01-15T14:15:01.501Z,67.63
2023-01-15T14:17:47.353Z,67.45
2023-01-15T14:20:14.193Z,68.11
2023-01-15T14:23:02.481Z,67.30
2023-01-15T14:25:33.691Z,68.94
2023-01-15T14:28:24.397Z,68.25
2023-01-15T14:30:51.291Z,67.89
2023-01-15T14:33:18.200Z,68.52
2023-01-15T14:35:47.671Z,68.92
2023-01-15T14:38:17.570Z,68.98
2023-01-15T14:41:03.474Z,69.32
2023-01-15T14:43:33.344Z,69.34
2023-01-15T14:46:27.474Z,68.03
2023-01-15T14:48:54.915Z,68.76
2023-01-15T14:51:24.839Z,68.22
2023-01-15T14:54:12.255Z,67.37
2023-01-15T14:56:44.701Z,67.51
2023-01-15T14:59:14.213Z,68.38
2023-01-15T15:01:45.730Z,67.30
2023-01-15T15:04:13.605Z,68.07
2023-01-15T15:07:00.469Z,68.19
2023-01-15T15:09:47.501Z,68.28
2023-01-15T15:12:20.939Z,68.39
2023-01-15T15:14:51.176Z,67.95
2023-01-15T15:17:26.555Z,68.47
2023-01-15T15:19:59.525Z,68.21
2023-01-15T15:22:29.662Z,68.22
2023-01-15T15:25:04.576Z,68.52
2023-01-15T15:27:31.634Z,67.51
2023-01-15T15:30:08.197Z,67.98
2023-01-15T15:32:40.336Z,68.20
2023-01-15T15:35:26.324Z,68.30
2023-01-15T15:37:53.919Z,68.87
2023-01-15T15:40:24.040Z,68.83
2023-01-15T15:43:40.323Z,68.87
2023-01-15T15:46:40.151Z,68.56
2023-01-15T15:49:07.532Z,69.31
2023-01-15T15:51:37.168Z,69.47
2023-01-15T15:54:19.458Z,70.32
2023-01-15T15:56:57.300Z,69.94
2023-01-15T15:59:35.712Z,70.21
2023-01-15T16:02:08.964Z,71.27
2023-01-15T16:04:35.784Z,70.04
2023-01-15T16:07:12.165Z,70.85
2023-01-15T16:09:40.048Z,71.40
2023-01-15T16:12:09.680Z,71.44
2023-01-15T16:14:37.669Z,71.23
2023-01-15T16:17:04.966Z,71.36
2023-01-15T16:19:31.897Z,71.93
2023-01-15T16:21:58.827Z,72.60
2023-01-15T16:24:27.624Z,72.63
2023-01-15T16:26:54.987Z,73.53
2023-01-15T16:29:24.707Z,74.32
2023-01-15T16:31:51.860Z,73.82
2023-01-15T16:34:19.970Z,74.23
2023-01-15T16:36:47.112Z,73.98
2023-01-15T16:39:20.458Z,73.85
2023-01-15T16:41:48.627Z,74.64
2023-01-15T16:44:34.448Z,74.37
2023-01-15T16:47:01.942Z,74.19
2023-01-15T16:49:30.811Z,73.50
2023-01-15T16:51:59.565Z,73.65
2023-01-15T16:54:29.489Z,73.70
2023-01-15T16:56:58.178Z,72.97
2023-01-15T16:59:28.215Z,73.42
2023-01-15T17:02:02.739Z,73.22
2023-01-15T17:04:37.293Z,73.04
2023-01-15T17:07:06.928Z,73.01
2023-01-15T17:09:36.439Z,73.23
2023-01-15T17:12:26.075Z,71.99
2023-01-15T17:14:53.423Z,72.74
2023-01-15T17:17:25.327Z,73.04
2023-01-15T17:19:53.147Z,72.47
2023-01-15T17:22:24.043Z,72.79
2023-01-15T17:24:56.078Z,72.09
2023-01-15T17:27:23.816Z,71.69
2023-01-15T17:29:50.995Z,72.13
2023-01-15T17:32:20.189Z,72.43
2023-01-15T17:34:46.928Z,71.69
2023-01-15T17:37:13.659Z,72.54
2023-01-15T17:39:40.674Z,72.40
2023-01-15T17:42:12.588Z,71.85
2023-01-15T17:44:39.275Z,72.64
2023-01-15T17:47:06.510Z,72.86
2023-01-15T17:49:33.989Z,72.36
2023-01-15T17:52:01.366Z,72.37
2023-01-15T17:54:47.502Z,72.96
2023-01-15T17:57:33.259Z,72.28
2023-01-15T18:02:38.096Z,71.58
2023-01-15T18:05:24.889Z,71.61
2023-01-15T18:07:53.114Z,72.80
2023-01-15T18:10:21.156Z,72.94
2023-01-15T18:12:48.977Z,72.18
2023-01-15T18:15:16.942Z,72.03
2023-01-15T18:17:44.368Z,72.44
2023-01-15T18:20:11.332Z,71.92
2023-01-15T18:22:38.590Z,71.87
2023-01-15T18:25:06.629Z,72.71
2023-01-15T18:27:33.543Z,72.26
2023-01-15T18:30:00.556Z,72.55
2023-01-15T18:32:28.072Z,73.13
2023-01-15T18:34:56.438Z,73.11
2023-01-15T18:37:23.216Z,73.17
2023-01-15T18:39:50.340Z,73.94
2023-01-15T18:42:17.631Z,73.95
2023-01-15T18:45:03.401Z,73.79
2023-01-15T18:47:30.633Z,74.69
2023-01-15T18:49:57.866Z,75.15
2023-01-15T18:52:43.514Z,75.35
2023-01-15T18:55:10.509Z,76.04
2023-01-15T18:57:37.008Z,76.45
2023-01-15T19:00:05.200Z,76.53
2023-01-15T19:02:32.168Z,76.39
2023-01-15T19:04:59.985Z,77.06
2023-01-15T19:07:27.271Z,76.90
2023-01-15T19:09:54.467Z,77.54
2023-01-15T19:12:21.394Z,77.88
2023-01-15T19:15:07.720Z,78.27
2023-01-15T19:17:53.281Z,78.10
2023-01-15T19:20:20.537Z,77.57
2023-01-15T19:23:00.276Z,77.05
2023-01-15T19:25:28.149Z,78.02
2023-01-15T19:27:55.385Z,77.55
2023-01-15T19:30:22.583Z,77.20
2023-01-15T19:32:50.352Z,77.21
2023-01-15T19:35:17.439Z,77.68
2023-01-15T19:37:44.376Z,76.27
2023-01-15T19:40:22.588Z,76.57
2023-01-15T19:43:08.717Z,76.54
2023-01-15T19:45:58.055Z,77.47
2023-01-15T19:48:43.507Z,76.88
2023-01-15T19:51:10.301Z,77.50
2023-01-15T19:53:40.084Z,76.25
2023-01-15T19:56:07.312Z,76.26
2023-01-15T19:58:35.611Z,76.78
2023-01-15T20:01:03.099Z,75.88
2023-01-15T20:03:31.128Z,75.63
2023-01-15T20:05:58.043Z,76.48
2023-01-15T20:08:24.868Z,76.28
2023-01-15T20:10:51.919Z,75.77
2023-01-15T20:13:39.753Z,75.50
2023-01-15T20:16:14.409Z,76.74
2023-01-15T20:18:41.325Z,76.30
2023-01-15T20:21:08.278Z,77.62
2023-01-15T20:23:36.619Z,78.49
2023-01-15T20:26:05.553Z,78.82
2023-01-15T20:28:33.467Z,77.35
2023-01-15T20:31:00.282Z,78.17
2023-01-15T20:33:27.902Z,78.64
2023-01-15T20:35:55.233Z,79.17
2023-01-15T20:38:23.312Z,77.80
2023-01-15T20:40:52.257Z,76.95
2023-01-15T20:43:38.814Z,77.44
2023-01-15T20:46:10.453Z,76.53
2023-01-15T20:48:56.546Z,77.13
2023-01-15T20:51:23.565Z,76.62
2023-01-15T20:53:51.468Z,75.77
2023-01-15T20:56:18.874Z,76.19
2023-01-15T20:58:45.714Z,76.03
2023-01-15T21:01:12.456Z,76.45
2023-01-15T21:03:39.691Z,75.98
2023-01-15T21:06:07.854Z,75.87
2023-01-15T21:08:35.091Z,75.36
2023-01-15T21:11:02.384Z,76.58
2023-01-15T21:13:31.149Z,75.56
2023-01-15T21:16:02.825Z,76.21
2023-01-15T21:18:31.143Z,75.30
2023-01-15T21:20:57.887Z,75.70
2023-01-15T21:23:24.992Z,75.45
2023-01-15T21:25:58.288Z,75.08
2023-01-15T21:28:25.242Z,75.43
2023-01-15T21:30:52.115Z,75.85
2023-01-15T21:33:19.180Z,75.30
2023-01-15T21:35:48.235Z,75.93
2023-01-15T21:38:14.986Z,75.93
2023-01-15T21:40:41.839Z,76.69
2023-01-15T21:43:29.382Z,77.04
2023-01-15T21:46:04.155Z,78.31
2023-01-15T21:48:32.542Z,79.78
2023-01-15T21:51:03.943Z,80.31
2023-01-15T21:53:31.406Z,81.30
2023-01-15T21:55:58.261Z,81.49
2023-01-15T21:58:25.379Z,83.13
2023-01-15T22:00:52.295Z,84.46
2023-01-15T22:03:19.013Z,86.24
2023-01-15T22:05:45.835Z,88.37
2023-01-15T22:08:12.747Z,88.49
2023-01-15T22:10:39.484Z,90.72
2023-01-15T22:13:06.576Z,90.30
2023-01-15T22:15:33.243Z,89.52
2023-01-15T22:18:00.971Z,90.41
2023-01-15T22:20:27.814Z,90.66
2023-01-15T22:22:54.864Z,91.65
2023-01-15T22:25:21.408Z,92.39
2023-01-15T22:27:48.336Z,92.02
2023-01-15T22:30:17.989Z,92.14
2023-01-15T22:32:45.760Z,92.09
2023-01-15T22:35:12.538Z,90.07
2023-01-15T22:37:39.426Z,90.33
2023-01-15T22:40:07.329Z,89.23
2023-01-15T22:42:34.037Z,90.13
2023-01-15T22:45:01.020Z,88.97
2023-01-15T22:47:28.685Z,89.60
2023-01-15T22:49:55.433Z,88.49
2023-01-15T22:52:25.154Z,87.76
2023-01-15T22:54:52.455Z,87.64
2023-01-15T22:57:19.601Z,88.85
2023-01-15T22:59:46.989Z,87.18
2023-01-15T23:02:13.744Z,88.08
2023-01-15T23:04:40.877Z,87.52
2023-01-15T23:07:08.371Z,88.33
2023-01-15T23:09:35.505Z,87.07
2023-01-15T23:12:02.504Z,88.89
2023-01-15T23:14:29.418Z,87.21
2023-01-15T23:16:56.517Z,87.00
2023-01-15T23:19:24.780Z,88.04
2023-01-15T23:21:52.081Z,86.44
2023-01-15T23:24:18.930Z,87.90
2023-01-15T23:26:45.594Z,86.08
2023-01-15T23:29:12.462Z,86.97
2023-01-15T23:31:40.138Z,89.44
2023-01-15T23:34:06.843Z,90.69
2023-01-15T23:36:33.725Z,92.60
2023-01-15T23:39:00.971Z,93.41
2023-01-15T23:41:46.647Z,92.38
2023-01-15T23:44:36.107Z,93.13
2023-01-15T23:47:03.235Z,93.65
2023-01-15T23:49:30.655Z,93.03
2023-01-15T23:51:57.867Z,93.02
2023-01-15T23:54:30.219Z,92.69
2023-01-15T23:56:58.352Z,91.32
2023-01-15T23:59:25.660Z,90.42
